Terminal Aerodrome Forecast
Issued by NWS

Home | Current Version | Previous Version | Text Only | Print | Product List | Glossary On
Versions: 1 2 3 4 5 6 7 8 9 10 11 12 13 14 15 16 17 18 19 20 21 22 23 24 25 26
000
FTUS43 KDLH 281137
TAFBRD
TAF
KBRD 281137Z 2812/2912 20005KT 4SM BR OVC002
     FM281600 20007KT P6SM OVC010
     FM281800 20010G16KT P6SM SCT020 BKN250
     FM290000 19005KT P6SM SCT100 BKN250
     FM290700 19003KT P6SM SCT030=

USA.gov is the U.S. government's official web portal to all federal, state and local government web resources and services.